sensor_id;sensor_type;location;lat;lon;timestamp;pressure;altitude;pressure_sealevel;temperature;humidity
34374;BME280;20637;55.770;37.592;2023-05-03T00:01:47;99907.28;;;11.72;40.51
34374;BME280;20637;55.770;37.592;2023-05-03T00:04:14;99919.97;;;11.72;40.94
34374;BME280;20637;55.770;37.592;2023-05-03T00:06:42;99911.84;;;11.72;40.71
34374;BME280;20637;55.770;37.592;2023-05-03T00:09:07;99910.13;;;11.71;40.70
34374;BME280;20637;55.770;37.592;2023-05-03T00:11:35;99910.31;;;11.69;41.04
34374;BME280;20637;55.770;37.592;2023-05-03T00:14:00;99896.94;;;11.68;41.26
34374;BME280;20637;55.770;37.592;2023-05-03T00:16:26;99906.06;;;11.67;41.05
34374;BME280;20637;55.770;37.592;2023-05-03T00:18:51;99899.13;;;11.64;40.84
34374;BME280;20637;55.770;37.592;2023-05-03T00:21:17;99898.47;;;11.62;41.06
34374;BME280;20637;55.770;37.592;2023-05-03T00:23:42;99886.97;;;11.60;41.05
34374;BME280;20637;55.770;37.592;2023-05-03T00:26:08;99897.94;;;11.59;41.14
34374;BME280;20637;55.770;37.592;2023-05-03T00:28:34;99895.44;;;11.57;40.99
34374;BME280;20637;55.770;37.592;2023-05-03T00:31:18;99894.56;;;11.57;41.58
34374;BME280;20637;55.770;37.592;2023-05-03T00:33:43;99887.66;;;11.54;41.38
34374;BME280;20637;55.770;37.592;2023-05-03T00:36:12;99889.50;;;11.54;41.40
34374;BME280;20637;55.770;37.592;2023-05-03T00:38:38;99877.84;;;11.53;41.50
34374;BME280;20637;55.770;37.592;2023-05-03T00:41:05;99885.09;;;11.53;41.43
34374;BME280;20637;55.770;37.592;2023-05-03T00:43:30;99876.16;;;11.52;41.54
34374;BME280;20637;55.770;37.592;2023-05-03T00:45:57;99875.50;;;11.50;41.37
34374;BME280;20637;55.770;37.592;2023-05-03T00:48:23;99876.34;;;11.51;41.64
34374;BME280;20637;55.770;37.592;2023-05-03T00:50:48;99871.25;;;11.47;41.48
34374;BME280;20637;55.770;37.592;2023-05-03T00:53:14;99868.03;;;11.44;41.90
34374;BME280;20637;55.770;37.592;2023-05-03T00:55:40;99866.19;;;11.44;41.49
34374;BME280;20637;55.770;37.592;2023-05-03T00:58:06;99854.19;;;11.39;41.51
34374;BME280;20637;55.770;37.592;2023-05-03T01:00:31;99870.56;;;11.37;41.68
34374;BME280;20637;55.770;37.592;2023-05-03T01:02:57;99853.66;;;11.35;41.74
34374;BME280;20637;55.770;37.592;2023-05-03T01:05:22;99848.09;;;11.37;41.95
34374;BME280;20637;55.770;37.592;2023-05-03T01:15:49;99832.38;;;11.32;41.67
34374;BME280;20637;55.770;37.592;2023-05-03T01:18:20;99843.19;;;11.32;41.64
34374;BME280;20637;55.770;37.592;2023-05-03T01:20:47;99836.94;;;11.32;41.72
34374;BME280;20637;55.770;37.592;2023-05-03T01:23:14;99845.91;;;11.32;41.80
34374;BME280;20637;55.770;37.592;2023-05-03T01:25:42;99842.53;;;11.30;41.84
34374;BME280;20637;55.770;37.592;2023-05-03T01:28:08;99839.63;;;11.32;41.68
34374;BME280;20637;55.770;37.592;2023-05-03T01:30:33;99835.09;;;11.32;41.83
34374;BME280;20637;55.770;37.592;2023-05-03T01:33:04;99838.63;;;11.33;42.01
34374;BME280;20637;55.770;37.592;2023-05-03T01:37:58;99821.41;;;11.34;42.29
34374;BME280;20637;55.770;37.592;2023-05-03T01:40:25;99826.81;;;11.34;42.24
34374;BME280;20637;55.770;37.592;2023-05-03T01:42:52;99825.13;;;11.33;42.06
34374;BME280;20637;55.770;37.592;2023-05-03T01:45:19;99824.13;;;11.34;42.16
34374;BME280;20637;55.770;37.592;2023-05-03T01:47:44;99810.59;;;11.34;42.37
34374;BME280;20637;55.770;37.592;2023-05-03T01:50:10;99816.88;;;11.34;41.96
34374;BME280;20637;55.770;37.592;2023-05-03T01:52:35;99814.16;;;11.34;42.07
34374;BME280;20637;55.770;37.592;2023-05-03T01:55:00;99809.41;;;11.36;42.17
34374;BME280;20637;55.770;37.592;2023-05-03T01:57:26;99809.41;;;11.36;42.06
34374;BME280;20637;55.770;37.592;2023-05-03T01:59:51;99808.25;;;11.39;41.98
34374;BME280;20637;55.770;37.592;2023-05-03T02:02:17;99815.16;;;11.41;42.09
34374;BME280;20637;55.770;37.592;2023-05-03T02:04:42;99803.66;;;11.39;41.63
34374;BME280;20637;55.770;37.592;2023-05-03T02:07:08;99801.81;;;11.40;41.76
34374;BME280;20637;55.770;37.592;2023-05-03T02:09:33;99810.97;;;11.39;41.90
34374;BME280;20637;55.770;37.592;2023-05-03T02:11:59;99804.69;;;11.38;41.77
34374;BME280;20637;55.770;37.592;2023-05-03T02:14:24;99821.94;;;11.37;41.96
34374;BME280;20637;55.770;37.592;2023-05-03T02:16:50;99813.47;;;11.32;41.97
34374;BME280;20637;55.770;37.592;2023-05-03T02:19:15;99803.00;;;11.29;42.24
34374;BME280;20637;55.770;37.592;2023-05-03T02:21:41;99798.94;;;11.25;42.37
34374;BME280;20637;55.770;37.592;2023-05-03T02:24:07;99802.84;;;11.23;42.53
34374;BME280;20637;55.770;37.592;2023-05-03T02:26:32;99805.19;;;11.18;42.66
34374;BME280;20637;55.770;37.592;2023-05-03T02:28:58;99796.44;;;11.16;42.59
34374;BME280;20637;55.770;37.592;2023-05-03T02:31:29;99799.28;;;11.14;42.92
34374;BME280;20637;55.770;37.592;2023-05-03T02:37:46;99796.22;;;11.09;43.19
34374;BME280;20637;55.770;37.592;2023-05-03T02:40:49;99793.53;;;11.09;43.17
34374;BME280;20637;55.770;37.592;2023-05-03T02:43:15;99795.56;;;11.07;43.25
34374;BME280;20637;55.770;37.592;2023-05-03T02:45:41;99802.81;;;11.07;43.17
34374;BME280;20637;55.770;37.592;2023-05-03T02:48:07;99811.06;;;11.05;43.27
34374;BME280;20637;55.770;37.592;2023-05-03T02:50:32;99797.41;;;11.07;43.27
34374;BME280;20637;55.770;37.592;2023-05-03T02:52:58;99795.56;;;11.07;43.45
34374;BME280;20637;55.770;37.592;2023-05-03T02:55:23;99800.78;;;11.09;43.41
34374;BME280;20637;55.770;37.592;2023-05-03T02:57:49;99788.81;;;11.11;43.55
34374;BME280;20637;55.770;37.592;2023-05-03T03:00:17;99794.22;;;11.11;43.42
34374;BME280;20637;55.770;37.592;2023-05-03T03:02:43;99793.38;;;11.11;43.23
34374;BME280;20637;55.770;37.592;2023-05-03T03:05:09;99802.47;;;11.10;43.62
34374;BME280;20637;55.770;37.592;2023-05-03T03:07:36;99794.56;;;11.08;43.32
34374;BME280;20637;55.770;37.592;2023-05-03T03:10:02;99809.06;;;11.07;43.62
34374;BME280;20637;55.770;37.592;2023-05-03T03:12:29;99808.06;;;11.08;43.63
34374;BME280;20637;55.770;37.592;2023-05-03T03:14:55;99805.38;;;11.08;43.60
34374;BME280;20637;55.770;37.592;2023-05-03T03:17:20;99798.28;;;11.07;43.79
34374;BME280;20637;55.770;37.592;2023-05-03T03:19:45;99797.75;;;11.04;43.69
34374;BME280;20637;55.770;37.592;2023-05-03T03:22:11;99808.38;;;11.05;43.93
34374;BME280;20637;55.770;37.592;2023-05-03T03:24:37;99810.06;;;11.06;44.01
34374;BME280;20637;55.770;37.592;2023-05-03T03:27:03;99807.38;;;11.06;43.96
34374;BME280;20637;55.770;37.592;2023-05-03T03:29:30;99807.38;;;11.06;43.95
34374;BME280;20637;55.770;37.592;2023-05-03T03:31:56;99807.72;;;11.03;43.79
34374;BME280;20637;55.770;37.592;2023-05-03T03:34:22;99805.16;;;11.02;44.10
34374;BME280;20637;55.770;37.592;2023-05-03T03:36:47;99807.72;;;11.03;44.04
34374;BME280;20637;55.770;37.592;2023-05-03T03:39:14;99812.59;;;10.99;44.10
34374;BME280;20637;55.770;37.592;2023-05-03T03:41:41;99812.94;;;10.96;43.81
34374;BME280;20637;55.770;37.592;2023-05-03T03:44:06;99806.84;;;10.94;44.18
34374;BME280;20637;55.770;37.592;2023-05-03T03:46:32;99808.88;;;10.92;44.13
34374;BME280;20637;55.770;37.592;2023-05-03T03:48:58;99815.44;;;10.90;44.38
34374;BME280;20637;55.770;37.592;2023-05-03T03:51:26;99821.34;;;10.93;44.41
34374;BME280;20637;55.770;37.592;2023-05-03T03:53:51;99823.06;;;10.94;44.40
34374;BME280;20637;55.770;37.592;2023-05-03T03:56:18;99826.09;;;10.91;44.83
34374;BME280;20637;55.770;37.592;2023-05-03T03:58:45;99824.41;;;10.90;44.85
34374;BME280;20637;55.770;37.592;2023-05-03T04:01:11;99820.84;;;10.90;45.35
34374;BME280;20637;55.770;37.592;2023-05-03T04:03:37;99843.97;;;10.84;46.17
34374;BME280;20637;55.770;37.592;2023-05-03T04:06:03;99843.94;;;10.76;46.69
34374;BME280;20637;55.770;37.592;2023-05-03T04:08:29;99840.56;;;10.74;46.67
34374;BME280;20637;55.770;37.592;2023-05-03T04:10:54;99848.66;;;10.74;46.70
34374;BME280;20637;55.770;37.592;2023-05-03T04:13:20;99832.63;;;10.73;47.62
34374;BME280;20637;55.770;37.592;2023-05-03T04:15:52;99839.19;;;10.70;47.76
34374;BME280;20637;55.770;37.592;2023-05-03T04:18:18;99840.03;;;10.71;48.29
34374;BME280;20637;55.770;37.592;2023-05-03T04:20:43;99837.53;;;10.69;48.24
34374;BME280;20637;55.770;37.592;2023-05-03T04:23:09;99819.63;;;10.68;48.40
34374;BME280;20637;55.770;37.592;2023-05-03T04:25:35;99835.63;;;10.70;48.15
34374;BME280;20637;55.770;37.592;2023-05-03T04:28:08;99821.34;;;10.77;48.99
34374;BME280;20637;55.770;37.592;2023-05-03T04:30:36;99839.06;;;10.80;48.96
34374;BME280;20637;55.770;37.592;2023-05-03T04:33:02;99829.59;;;10.76;49.15
34374;BME280;20637;55.770;37.592;2023-05-03T04:35:31;99830.09;;;10.71;49.69
34374;BME280;20637;55.770;37.592;2023-05-03T04:37:59;99833.63;;;10.72;49.66
34374;BME280;20637;55.770;37.592;2023-05-03T04:40:27;99845.28;;;10.72;50.25
34374;BME280;20637;55.770;37.592;2023-05-03T04:43:03;99845.63;;;10.69;50.80
34374;BME280;20637;55.770;37.592;2023-05-03T04:45:32;99854.19;;;10.65;51.50
34374;BME280;20637;55.770;37.592;2023-05-03T04:47:58;99859.22;;;10.60;52.01
34374;BME280;20637;55.770;37.592;2023-05-03T04:50:24;99849.09;;;10.54;52.01
34374;BME280;20637;55.770;37.592;2023-05-03T04:52:50;99848.75;;;10.48;52.62
34374;BME280;20637;55.770;37.592;2023-05-03T04:55:17;99851.25;;;10.42;52.77
34374;BME280;20637;55.770;37.592;2023-05-03T04:57:43;99850.72;;;10.38;53.62
34374;BME280;20637;55.770;37.592;2023-05-03T05:00:11;99860.44;;;10.31;53.38
34374;BME280;20637;55.770;37.592;2023-05-03T05:02:41;99853.38;;;10.30;53.49
34374;BME280;20637;55.770;37.592;2023-05-03T05:05:08;99857.94;;;10.30;53.80
34374;BME280;20637;55.770;37.592;2023-05-03T05:07:34;99858.31;;;10.35;53.52
34374;BME280;20637;55.770;37.592;2023-05-03T05:10:00;99855.78;;;10.41;54.23
34374;BME280;20637;55.770;37.592;2023-05-03T05:12:26;99859.16;;;10.43;54.18
34374;BME280;20637;55.770;37.592;2023-05-03T05:14:52;99849.53;;;10.41;54.16
34374;BME280;20637;55.770;37.592;2023-05-03T05:17:18;99863.38;;;10.38;54.07
34374;BME280;20637;55.770;37.592;2023-05-03T05:19:44;99862.16;;;10.32;53.95
34374;BME280;20637;55.770;37.592;2023-05-03T05:22:09;99855.75;;;10.33;54.34
34374;BME280;20637;55.770;37.592;2023-05-03T05:24:41;99856.94;;;10.39;54.63
34374;BME280;20637;55.770;37.592;2023-05-03T05:27:09;99851.06;;;10.43;54.73
34374;BME280;20637;55.770;37.592;2023-05-03T05:29:35;99865.78;;;10.49;55.41
34374;BME280;20637;55.770;37.592;2023-05-03T05:32:00;99868.16;;;10.52;55.18
34374;BME280;20637;55.770;37.592;2023-05-03T05:34:28;99860.41;;;10.57;55.58
34374;BME280;20637;55.770;37.592;2023-05-03T05:36:54;99864.00;;;10.66;54.97
34374;BME280;20637;55.770;37.592;2023-05-03T05:39:22;99854.75;;;10.76;55.02
34374;BME280;20637;55.770;37.592;2023-05-03T05:41:48;99865.56;;;10.84;55.22
34374;BME280;20637;55.770;37.592;2023-05-03T05:44:13;99864.91;;;10.90;54.87
34374;BME280;20637;55.770;37.592;2023-05-03T05:46:40;99864.75;;;10.92;54.89
34374;BME280;20637;55.770;37.592;2023-05-03T05:49:05;99862.06;;;10.92;55.44
34374;BME280;20637;55.770;37.592;2023-05-03T05:51:31;99859.03;;;10.95;55.28
34374;BME280;20637;55.770;37.592;2023-05-03T05:53:57;99868.28;;;11.00;55.16
34374;BME280;20637;55.770;37.592;2023-05-03T05:56:23;99865.94;;;10.97;55.16
34374;BME280;20637;55.770;37.592;2023-05-03T05:58:49;99869.66;;;10.96;55.23
34374;BME280;20637;55.770;37.592;2023-05-03T06:01:14;99858.84;;;11.05;55.10
34374;BME280;20637;55.770;37.592;2023-05-03T06:03:40;99866.66;;;11.16;54.90
34374;BME280;20637;55.770;37.592;2023-05-03T06:06:07;99872.41;;;11.21;54.92
34374;BME280;20637;55.770;37.592;2023-05-03T06:08:32;99870.38;;;11.23;54.79
34374;BME280;20637;55.770;37.592;2023-05-03T06:10:58;99862.09;;;11.24;54.79
34374;BME280;20637;55.770;37.592;2023-05-03T06:13:25;99869.53;;;11.22;54.78
34374;BME280;20637;55.770;37.592;2023-05-03T06:15:51;99867.50;;;11.24;54.84
34374;BME280;20637;55.770;37.592;2023-05-03T06:18:16;99866.66;;;11.32;54.89
34374;BME280;20637;55.770;37.592;2023-05-03T06:20:47;99870.41;;;11.39;54.76
34374;BME280;20637;55.770;37.592;2023-05-03T06:23:13;99863.81;;;11.41;54.78
34374;BME280;20637;55.770;37.592;2023-05-03T06:25:38;99870.75;;;11.44;54.62
34374;BME280;20637;55.770;37.592;2023-05-03T06:28:04;99884.59;;;11.49;54.50
34374;BME280;20637;55.770;37.592;2023-05-03T06:30:31;99883.75;;;11.57;54.42
34374;BME280;20637;55.770;37.592;2023-05-03T06:33:03;99880.88;;;11.66;54.64
34374;BME280;20637;55.770;37.592;2023-05-03T06:35:29;99886.81;;;11.78;54.43
34374;BME280;20637;55.770;37.592;2023-05-03T06:37:55;99879.56;;;11.86;53.96
34374;BME280;20637;55.770;37.592;2023-05-03T06:40:21;99882.41;;;12.01;53.90
34374;BME280;20637;55.770;37.592;2023-05-03T06:42:49;99879.69;;;12.09;53.70
34374;BME280;20637;55.770;37.592;2023-05-03T06:45:32;99885.59;;;12.13;53.20
34374;BME280;20637;55.770;37.592;2023-05-03T06:47:57;99886.13;;;12.08;53.13
34374;BME280;20637;55.770;37.592;2023-05-03T06:50:23;99889.50;;;12.10;53.37
34374;BME280;20637;55.770;37.592;2023-05-03T06:52:49;99883.56;;;12.23;53.15
34374;BME280;20637;55.770;37.592;2023-05-03T06:55:15;99887.91;;;12.32;52.62
34374;BME280;20637;55.770;37.592;2023-05-03T06:57:40;99883.69;;;12.37;52.75
34374;BME280;20637;55.770;37.592;2023-05-03T07:00:07;99882.31;;;12.41;52.90
34374;BME280;20637;55.770;37.592;2023-05-03T07:02:33;99881.94;;;12.53;52.85
34374;BME280;20637;55.770;37.592;2023-05-03T07:04:58;99881.88;;;12.69;52.09
34374;BME280;20637;55.770;37.592;2023-05-03T07:07:23;99878.91;;;12.86;51.91
34374;BME280;20637;55.770;37.592;2023-05-03T07:09:49;99889.69;;;13.03;51.89
34374;BME280;20637;55.770;37.592;2023-05-03T07:12:14;99886.97;;;13.11;51.46
34374;BME280;20637;55.770;37.592;2023-05-03T07:14:40;99885.09;;;13.11;51.00
34374;BME280;20637;55.770;37.592;2023-05-03T07:17:06;99889.78;;;13.17;50.99
34374;BME280;20637;55.770;37.592;2023-05-03T07:19:31;99894.31;;;13.25;51.26
34374;BME280;20637;55.770;37.592;2023-05-03T07:21:57;99884.16;;;13.27;50.61
34374;BME280;20637;55.770;37.592;2023-05-03T07:24:22;99892.78;;;13.30;50.98
34374;BME280;20637;55.770;37.592;2023-05-03T07:26:49;99899.16;;;13.38;50.67
34374;BME280;20637;55.770;37.592;2023-05-03T07:29:15;99898.47;;;13.44;50.62
34374;BME280;20637;55.770;37.592;2023-05-03T07:31:40;99902.59;;;13.54;50.64
34374;BME280;20637;55.770;37.592;2023-05-03T07:34:06;99890.41;;;13.73;50.20
34374;BME280;20637;55.770;37.592;2023-05-03T07:36:31;99898.81;;;13.86;50.62
34374;BME280;20637;55.770;37.592;2023-05-03T07:38:57;99888.69;;;13.95;50.52
34374;BME280;20637;55.770;37.592;2023-05-03T07:41:22;99900.22;;;13.97;50.47
34374;BME280;20637;55.770;37.592;2023-05-03T07:43:48;99909.09;;;13.91;49.94
34374;BME280;20637;55.770;37.592;2023-05-03T07:46:14;99906.09;;;13.86;50.43
34374;BME280;20637;55.770;37.592;2023-05-03T07:48:39;99910.97;;;13.90;50.33
34374;BME280;20637;55.770;37.592;2023-05-03T07:51:04;99910.06;;;13.98;50.09
34374;BME280;20637;55.770;37.592;2023-05-03T07:53:30;99913.81;;;14.11;49.84
34374;BME280;20637;55.770;37.592;2023-05-03T07:55:55;99913.19;;;14.24;50.22
34374;BME280;20637;55.770;37.592;2023-05-03T07:58:21;99922.13;;;14.32;49.72
34374;BME280;20637;55.770;37.592;2023-05-03T08:00:47;99920.22;;;14.33;49.15
34374;BME280;20637;55.770;37.592;2023-05-03T08:03:12;99923.56;;;14.43;49.82
34374;BME280;20637;55.770;37.592;2023-05-03T08:05:37;99922.88;;;14.56;49.25
34374;BME280;20637;55.770;37.592;2023-05-03T08:08:03;99920.16;;;14.56;49.51
34374;BME280;20637;55.770;37.592;2023-05-03T08:10:29;99923.09;;;14.54;49.22
34374;BME280;20637;55.770;37.592;2023-05-03T08:12:56;99926.75;;;14.47;49.22
34374;BME280;20637;55.770;37.592;2023-05-03T08:15:21;99927.34;;;14.34;49.29
34374;BME280;20637;55.770;37.592;2023-05-03T08:17:46;99927.88;;;14.29;49.41
34374;BME280;20637;55.770;37.592;2023-05-03T08:20:12;99929.75;;;14.29;49.83
34374;BME280;20637;55.770;37.592;2023-05-03T08:22:38;99944.19;;;14.29;49.75
34374;BME280;20637;55.770;37.592;2023-05-03T08:25:05;99943.06;;;14.24;49.22
34374;BME280;20637;55.770;37.592;2023-05-03T08:27:31;99953.72;;;14.25;49.65
34374;BME280;20637;55.770;37.592;2023-05-03T08:29:57;99950.91;;;14.19;49.93
34374;BME280;20637;55.770;37.592;2023-05-03T08:32:24;99957.34;;;14.18;50.50
34374;BME280;20637;55.770;37.592;2023-05-03T08:34:50;99949.75;;;14.13;50.56
34374;BME280;20637;55.770;37.592;2023-05-03T08:37:16;99960.81;;;14.12;50.33
34374;BME280;20637;55.770;37.592;2023-05-03T08:39:41;99952.19;;;14.08;50.52
34374;BME280;20637;55.770;37.592;2023-05-03T08:42:07;99964.06;;;14.07;50.44
34374;BME280;20637;55.770;37.592;2023-05-03T08:44:34;99959.50;;;14.08;50.87
34374;BME280;20637;55.770;37.592;2023-05-03T08:47:00;99960.34;;;14.08;51.01
34374;BME280;20637;55.770;37.592;2023-05-03T08:49:26;99954.06;;;14.08;51.37
34374;BME280;20637;55.770;37.592;2023-05-03T08:51:52;99950.88;;;14.04;51.09
34374;BME280;20637;55.770;37.592;2023-05-03T08:54:19;99952.56;;;14.05;51.14
34374;BME280;20637;55.770;37.592;2023-05-03T08:56:45;99934.97;;;14.01;51.40
34374;BME280;20637;55.770;37.592;2023-05-03T08:59:11;99932.53;;;14.06;52.76
34374;BME280;20637;55.770;37.592;2023-05-03T09:01:38;99939.25;;;13.96;52.81
34374;BME280;20637;55.770;37.592;2023-05-03T09:04:04;99936.22;;;13.91;52.91
34374;BME280;20637;55.770;37.592;2023-05-03T09:06:30;99941.00;;;13.89;53.84
34374;BME280;20637;55.770;37.592;2023-05-03T09:08:58;99945.47;;;13.81;54.87
34374;BME280;20637;55.770;37.592;2023-05-03T09:11:28;99957.72;;;13.77;54.14
34374;BME280;20637;55.770;37.592;2023-05-03T09:14:06;99959.25;;;13.72;53.76
34374;BME280;20637;55.770;37.592;2023-05-03T09:16:32;99967.28;;;13.65;53.79
34374;BME280;20637;55.770;37.592;2023-05-03T09:19:04;99965.78;;;13.63;53.93
34374;BME280;20637;55.770;37.592;2023-05-03T09:21:33;99960.66;;;13.68;54.88
34374;BME280;20637;55.770;37.592;2023-05-03T09:23:59;99957.41;;;13.72;53.79
34374;BME280;20637;55.770;37.592;2023-05-03T09:26:29;99956.50;;;13.80;54.03
34374;BME280;20637;55.770;37.592;2023-05-03T09:28:56;99960.22;;;13.79;54.27
34374;BME280;20637;55.770;37.592;2023-05-03T09:31:21;99964.84;;;13.78;54.00
34374;BME280;20637;55.770;37.592;2023-05-03T09:33:49;99964.63;;;13.80;53.78
34374;BME280;20637;55.770;37.592;2023-05-03T09:36:15;99960.38;;;13.86;54.12
34374;BME280;20637;55.770;37.592;2023-05-03T09:38:41;99961.50;;;13.91;53.43
34374;BME280;20637;55.770;37.592;2023-05-03T09:41:07;99970.31;;;13.93;53.52
34374;BME280;20637;55.770;37.592;2023-05-03T09:43:33;99981.03;;;14.09;53.54
34374;BME280;20637;55.770;37.592;2023-05-03T09:46:08;99981.81;;;13.95;53.21
34374;BME280;20637;55.770;37.592;2023-05-03T09:48:35;99986.16;;;13.81;53.17
34374;BME280;20637;55.770;37.592;2023-05-03T09:51:01;99992.44;;;13.82;53.59
34374;BME280;20637;55.770;37.592;2023-05-03T09:53:27;99987.72;;;13.76;53.17
34374;BME280;20637;55.770;37.592;2023-05-03T09:55:53;99992.34;;;13.67;54.25
34374;BME280;20637;55.770;37.592;2023-05-03T09:58:20;99989.16;;;13.64;53.58
34374;BME280;20637;55.770;37.592;2023-05-03T10:00:48;99988.88;;;13.59;53.76
34374;BME280;20637;55.770;37.592;2023-05-03T10:09:04;100001.44;;;13.52;54.99
34374;BME280;20637;55.770;37.592;2023-05-03T10:11:32;99999.41;;;13.54;55.22
34374;BME280;20637;55.770;37.592;2023-05-03T10:13:58;100005.31;;;13.57;54.48
34374;BME280;20637;55.770;37.592;2023-05-03T10:16:25;99994.56;;;13.64;54.29
34374;BME280;20637;55.770;37.592;2023-05-03T10:24:13;100001.47;;;13.74;55.39
34374;BME280;20637;55.770;37.592;2023-05-03T10:26:49;99994.69;;;13.78;55.50
34374;BME280;20637;55.770;37.592;2023-05-03T10:31:55;99987.59;;;13.92;55.00
34374;BME280;20637;55.770;37.592;2023-05-03T10:34:22;99997.44;;;13.93;55.25
34374;BME280;20637;55.770;37.592;2023-05-03T10:36:48;99999.31;;;13.93;55.15
34374;BME280;20637;55.770;37.592;2023-05-03T10:39:18;99998.19;;;14.02;55.55
34374;BME280;20637;55.770;37.592;2023-05-03T10:41:44;100001.72;;;14.10;55.03
34374;BME280;20637;55.770;37.592;2023-05-03T10:44:25;100006.44;;;14.16;54.69
34374;BME280;20637;55.770;37.592;2023-05-03T10:46:52;100000.09;;;14.24;55.10
34374;BME280;20637;55.770;37.592;2023-05-03T10:49:18;99995.13;;;14.27;54.31
34374;BME280;20637;55.770;37.592;2023-05-03T10:51:44;99984.91;;;14.29;54.96
34374;BME280;20637;55.770;37.592;2023-05-03T10:54:10;99987.13;;;14.49;54.68
34374;BME280;20637;55.770;37.592;2023-05-03T10:56:51;99989.53;;;14.66;54.10
34374;BME280;20637;55.770;37.592;2023-05-03T10:59:17;99992.72;;;14.70;53.42
34374;BME280;20637;55.770;37.592;2023-05-03T11:01:43;99997.22;;;14.77;53.50
34374;BME280;20637;55.770;37.592;2023-05-03T11:04:11;99987.09;;;14.86;53.47
34374;BME280;20637;55.770;37.592;2023-05-03T11:06:38;99997.69;;;14.96;53.75
34374;BME280;20637;55.770;37.592;2023-05-03T11:09:06;100001.06;;;14.98;53.08
34374;BME280;20637;55.770;37.592;2023-05-03T11:11:31;99991.97;;;15.05;53.43
34374;BME280;20637;55.770;37.592;2023-05-03T11:13:57;99995.06;;;15.17;52.87
34374;BME280;20637;55.770;37.592;2023-05-03T11:16:22;100002.06;;;15.26;53.02
34374;BME280;20637;55.770;37.592;2023-05-03T11:18:49;99996.63;;;15.26;52.48
34374;BME280;20637;55.770;37.592;2023-05-03T11:21:14;100000.41;;;15.25;52.87
34374;BME280;20637;55.770;37.592;2023-05-03T11:23:41;99988.13;;;15.29;52.80
34374;BME280;20637;55.770;37.592;2023-05-03T11:26:07;99984.78;;;15.34;52.78
34374;BME280;20637;55.770;37.592;2023-05-03T11:28:32;99983.03;;;15.41;52.43
34374;BME280;20637;55.770;37.592;2023-05-03T11:30:58;99974.38;;;15.37;52.21
34374;BME280;20637;55.770;37.592;2023-05-03T11:33:27;99982.63;;;15.44;51.42
34374;BME280;20637;55.770;37.592;2023-05-03T11:35:56;99978.84;;;15.45;51.50
34374;BME280;20637;55.770;37.592;2023-05-03T11:38:22;99978.44;;;15.56;51.35
34374;BME280;20637;55.770;37.592;2023-05-03T11:40:47;99974.00;;;15.55;51.23
34374;BME280;20637;55.770;37.592;2023-05-03T11:43:13;99963.00;;;15.63;51.08
34374;BME280;20637;55.770;37.592;2023-05-03T11:45:45;99970.78;;;15.66;50.81
34374;BME280;20637;55.770;37.592;2023-05-03T11:48:11;99973.56;;;15.51;50.93
34374;BME280;20637;55.770;37.592;2023-05-03T11:50:53;99973.91;;;15.48;51.14
34374;BME280;20637;55.770;37.592;2023-05-03T11:53:22;99965.63;;;15.56;50.73
34374;BME280;20637;55.770;37.592;2023-05-03T11:55:49;99965.19;;;15.53;50.54
34374;BME280;20637;55.770;37.592;2023-05-03T11:58:24;99979.91;;;15.58;50.66
34374;BME280;20637;55.770;37.592;2023-05-03T12:00:54;99970.09;;;15.79;50.29
34374;BME280;20637;55.770;37.592;2023-05-03T12:03:24;99974.50;;;16.01;50.07
34374;BME280;20637;55.770;37.592;2023-05-03T12:05:50;99980.06;;;16.14;49.55
34374;BME280;20637;55.770;37.592;2023-05-03T12:08:17;99979.09;;;16.22;49.52
34374;BME280;20637;55.770;37.592;2023-05-03T12:10:44;99985.34;;;16.22;49.19
34374;BME280;20637;55.770;37.592;2023-05-03T12:13:09;99984.59;;;16.07;49.46
34374;BME280;20637;55.770;37.592;2023-05-03T12:15:36;99980.31;;;15.77;49.97
34374;BME280;20637;55.770;37.592;2023-05-03T12:18:05;99983.81;;;15.70;50.45
34374;BME280;20637;55.770;37.592;2023-05-03T12:20:31;99989.25;;;15.70;49.80
34374;BME280;20637;55.770;37.592;2023-05-03T12:22:58;99982.00;;;15.78;49.62
34374;BME280;20637;55.770;37.592;2023-05-03T12:25:24;99983.25;;;15.75;49.34
34374;BME280;20637;55.770;37.592;2023-05-03T12:27:50;99989.03;;;15.72;49.44
34374;BME280;20637;55.770;37.592;2023-05-03T12:30:16;99980.09;;;15.57;49.65
34374;BME280;20637;55.770;37.592;2023-05-03T12:32:41;99981.16;;;15.56;49.86
34374;BME280;20637;55.770;37.592;2023-05-03T12:35:07;99972.94;;;15.70;49.67
34374;BME280;20637;55.770;37.592;2023-05-03T12:37:35;99986.53;;;15.70;49.84
34374;BME280;20637;55.770;37.592;2023-05-03T12:40:04;99979.34;;;15.84;49.83
34374;BME280;20637;55.770;37.592;2023-05-03T12:42:31;99979.75;;;16.02;49.32
34374;BME280;20637;55.770;37.592;2023-05-03T12:44:57;99966.38;;;16.07;49.08
34374;BME280;20637;55.770;37.592;2023-05-03T12:47:22;99959.22;;;16.06;48.71
34374;BME280;20637;55.770;37.592;2023-05-03T12:49:47;99959.00;;;16.01;48.86
34374;BME280;20637;55.770;37.592;2023-05-03T12:52:13;99979.34;;;16.05;48.89
34374;BME280;20637;55.770;37.592;2023-05-03T12:54:38;99972.66;;;16.08;48.78
34374;BME280;20637;55.770;37.592;2023-05-03T12:57:05;99964.63;;;16.00;47.77
34374;BME280;20637;55.770;37.592;2023-05-03T12:59:31;99966.13;;;16.02;48.40
34374;BME280;20637;55.770;37.592;2023-05-03T13:01:56;99955.06;;;16.32;48.04
34374;BME280;20637;55.770;37.592;2023-05-03T13:04:21;99968.44;;;16.54;47.76
34374;BME280;20637;55.770;37.592;2023-05-03T13:06:47;99971.75;;;16.50;46.48
34374;BME280;20637;55.770;37.592;2023-05-03T13:09:17;99966.84;;;16.39;46.62
34374;BME280;20637;55.770;37.592;2023-05-03T13:11:43;99970.53;;;16.52;46.79
34374;BME280;20637;55.770;37.592;2023-05-03T13:14:09;99982.59;;;16.64;46.68
34374;BME280;20637;55.770;37.592;2023-05-03T13:16:38;99975.66;;;16.62;46.65